Time;durP1;ratioP1;P1;durP2;ratioP2;P2;SDS_P1;SDS_P2;PMS_P1;PMS_P2;Temp;Humidity;BMP_temperature;BMP_pressure;BME280_temperature;BME280_humidity;BME280_pressure;Samples;Min_cycle;Max_cycle;Signal;HPM_P1;HPM_P2
2024/01/17 00:11:17;;;;;;;81.40;26.40;;;;;;;-4.62;67.92;99519.73;682453;1262;140439;-79
2024/01/17 00:26:22;;;;;;;60.10;20.90;;;;;;;-4.36;68.36;99515.02;682172;1264;138795;-80
2024/01/17 00:41:26;;;;;;;88.10;23.10;;;;;;;-4.26;68.18;99528.98;682162;1263;141018;-78
2024/01/17 00:56:34;;;;;;;72.70;22.50;;;;;;;-4.41;68.27;99532.10;682151;1265;140093;-78
2024/01/17 01:11:38;;;;;;;53.60;18.70;;;;;;;-4.25;69.76;99531.98;682266;1263;140034;-79
2024/01/17 01:26:42;;;;;;;57.30;16.00;;;;;;;-4.04;70.11;99524.34;682233;1264;139319;-79
2024/01/17 01:41:47;;;;;;;52.30;18.40;;;;;;;-3.84;70.46;99516.37;682045;1260;139343;-79
2024/01/17 01:56:53;;;;;;;36.30;17.00;;;;;;;-3.79;71.26;99501.67;682334;1265;141055;-78
2024/01/17 02:11:58;;;;;;;43.40;17.50;;;;;;;-3.66;71.83;99485.92;682096;1264;143036;-79
2024/01/17 02:27:02;;;;;;;37.60;15.80;;;;;;;-3.65;72.10;99469.30;682222;1265;139823;-79
2024/01/17 02:42:05;;;;;;;40.80;16.20;;;;;;;-3.56;72.56;99467.20;681961;1265;139630;-79
2024/01/17 02:57:09;;;;;;;35.30;13.90;;;;;;;-3.47;73.21;99458.27;682268;1263;141453;-79
2024/01/17 03:12:14;;;;;;;40.80;13.00;;;;;;;-3.11;73.34;99464.23;681982;1265;139302;-80
2024/01/17 03:27:18;;;;;;;38.90;17.80;;;;;;;-2.84;74.23;99460.10;682024;1263;140452;-78
2024/01/17 03:42:22;;;;;;;54.70;20.20;;;;;;;-2.71;74.53;99443.23;681980;1265;139266;-80
2024/01/17 03:57:27;;;;;;;44.00;16.90;;;;;;;-2.65;75.84;99438.02;682168;1265;140423;-79
2024/01/17 04:12:32;;;;;;;55.80;20.60;;;;;;;-2.48;76.07;99429.02;681968;1260;140874;-80
2024/01/17 04:27:36;;;;;;;63.00;20.80;;;;;;;-2.47;77.24;99429.80;681985;1264;139899;-79
2024/01/17 04:42:39;;;;;;;59.10;19.70;;;;;;;-2.43;79.07;99426.90;681922;1263;140359;-79
2024/01/17 04:57:43;;;;;;;97.70;28.50;;;;;;;-2.30;78.32;99416.49;682088;1263;142383;-79
2024/01/17 05:12:47;;;;;;;70.30;24.80;;;;;;;-2.28;78.25;99415.52;682091;1265;139730;-79
2024/01/17 05:27:52;;;;;;;77.90;32.40;;;;;;;-2.30;78.30;99406.18;682049;1265;140649;-79
2024/01/17 05:42:55;;;;;;;84.10;34.00;;;;;;;-2.41;78.30;99391.82;682128;1265;140954;-79
2024/01/17 05:57:59;;;;;;;101.30;32.50;;;;;;;-2.20;80.20;99387.39;682060;1261;139708;-79
2024/01/17 06:13:03;;;;;;;91.90;30.30;;;;;;;-1.82;82.11;99386.18;681900;1265;140927;-79
2024/01/17 06:28:07;;;;;;;64.10;24.40;;;;;;;-1.65;83.64;99368.48;682170;1265;139536;-79
2024/01/17 06:43:11;;;;;;;74.10;26.50;;;;;;;-1.49;85.96;99352.39;681939;1264;141235;-79
2024/01/17 06:58:14;;;;;;;96.60;47.60;;;;;;;-1.34;85.97;99343.88;682047;1260;140613;-79
2024/01/17 07:13:19;;;;;;;73.10;30.40;;;;;;;-1.24;86.15;99344.73;681980;1265;141108;-79
2024/01/17 07:28:22;;;;;;;65.20;25.00;;;;;;;-1.14;87.62;99353.80;682067;1265;146258;-79
2024/01/17 07:43:26;;;;;;;95.90;34.60;;;;;;;-1.13;88.63;99334.01;681916;1266;139182;-81
2024/01/17 07:58:31;;;;;;;95.60;36.10;;;;;;;-1.18;89.82;99308.71;682114;1265;139303;-81
2024/01/17 08:13:36;;;;;;;117.10;43.20;;;;;;;-0.90;89.13;99280.38;681802;1260;139666;-80
2024/01/17 08:28:43;;;;;;;153.30;51.20;;;;;;;-0.68;89.23;99256.13;682167;1261;139564;-81
2024/01/17 08:43:50;;;;;;;91.20;35.40;;;;;;;-0.45;89.28;99230.73;681940;1263;139792;-80
2024/01/17 08:58:55;;;;;;;82.10;35.10;;;;;;;-0.14;88.58;99210.54;682078;1266;140828;-81
2024/01/17 09:14:00;;;;;;;82.80;29.70;;;;;;;0.00;88.69;99191.45;682042;1260;140988;-80
2024/01/17 09:29:03;;;;;;;73.20;32.10;;;;;;;1.33;86.34;99169.61;681983;1263;139244;-81
2024/01/17 09:44:07;;;;;;;62.90;28.30;;;;;;;3.40;80.20;99145.98;682034;1260;139405;-81
2024/01/17 09:59:16;;;;;;;41.60;22.00;;;;;;;5.35;73.42;99118.45;682097;1261;140635;-81
2024/01/17 10:14:23;;;;;;;65.30;30.10;;;;;;;4.69;68.98;99091.27;681984;1260;139664;-81
2024/01/17 10:29:30;;;;;;;49.00;22.90;;;;;;;4.52;67.91;99050.14;681993;1261;138304;-80
2024/01/17 10:44:36;;;;;;;41.10;20.50;;;;;;;3.90;66.90;99012.04;682040;1261;139249;-80
2024/01/17 10:59:45;;;;;;;55.70;25.50;;;;;;;3.85;65.99;98972.10;681964;1265;138479;-81
2024/01/17 11:14:54;;;;;;;36.60;19.10;;;;;;;3.67;65.54;98941.03;682107;1260;138868;-81
2024/01/17 11:30:30;;;;;;;39.80;18.90;;;;;;;3.60;64.97;98906.00;682104;1261;139142;-81
2024/01/17 11:45:36;;;;;;;40.20;18.90;;;;;;;3.09;64.73;98874.67;682145;1259;138663;-82
2024/01/17 12:00:41;;;;;;;33.00;17.70;;;;;;;2.90;63.86;98848.69;682056;1265;139458;-80
2024/01/17 12:15:46;;;;;;;304.90;127.20;;;;;;;2.25;63.57;98823.82;682078;1261;139268;-80
2024/01/17 12:31:06;;;;;;;161.20;61.90;;;;;;;1.73;64.02;98794.83;681973;1260;140355;-80
2024/01/17 12:46:10;;;;;;;51.20;23.90;;;;;;;1.30;64.27;98774.34;682145;1260;139929;-80
2024/01/17 13:01:16;;;;;;;75.10;34.70;;;;;;;0.98;65.07;98749.64;682018;1265;139455;-80
2024/01/17 13:16:21;;;;;;;204.90;48.60;;;;;;;0.76;64.99;98721.63;681877;1263;138854;-80
2024/01/17 13:31:26;;;;;;;135.70;41.00;;;;;;;0.90;65.05;98708.02;681981;1265;144727;-80
2024/01/17 13:46:35;;;;;;;;;;;;;;;0.71;65.22;98680.15;682192;1264;139362;-80
2024/01/17 14:01:39;;;;;;;58.40;25.70;;;;;;;0.69;65.42;98646.95;682074;1265;126312;-80
2024/01/17 14:16:44;;;;;;;75.80;33.20;;;;;;;0.45;65.75;98619.08;682057;1260;138888;-80
2024/01/17 14:31:48;;;;;;;108.70;36.10;;;;;;;0.44;66.24;98576.30;682256;1260;138840;-79
2024/01/17 14:46:52;;;;;;;50.70;24.20;;;;;;;-0.07;66.53;98527.52;682177;1264;139585;-80
2024/01/17 15:01:56;;;;;;;196.50;56.10;;;;;;;-0.30;66.99;98485.86;681783;1265;139016;-80
2024/01/17 15:17:00;;;;;;;227.60;55.60;;;;;;;-0.57;67.29;98454.80;682117;1263;139599;-79
2024/01/17 15:32:05;;;;;;;244.50;63.50;;;;;;;-0.80;67.85;98444.70;681806;1265;139052;-80
2024/01/17 15:47:10;;;;;;;145.80;46.40;;;;;;;-0.97;68.51;98435.11;682072;1264;139234;-80
2024/01/17 16:02:15;;;;;;;136.60;46.30;;;;;;;-1.05;68.49;98410.27;681798;1264;139479;-80
2024/01/17 16:17:19;;;;;;;142.80;43.50;;;;;;;-1.25;69.40;98385.08;681986;1264;139018;-80
2024/01/17 16:32:22;;;;;;;134.80;43.40;;;;;;;-1.34;69.64;98356.38;681869;1265;140451;-79
2024/01/17 16:47:29;;;;;;;136.80;48.10;;;;;;;-1.65;70.04;98325.89;681936;1275;139018;-80
2024/01/17 17:02:36;;;;;;;147.60;56.20;;;;;;;-1.51;71.17;98301.09;681622;1262;139995;-79
2024/01/17 17:17:40;;;;;;;93.20;34.10;;;;;;;-1.52;71.64;98282.30;682033;1261;139264;-80
2024/01/17 17:32:44;;;;;;;117.30;43.50;;;;;;;-1.51;72.60;98255.52;682049;1262;139185;-80
2024/01/17 17:47:49;;;;;;;;;;;;;;;-1.25;72.57;98227.79;682004;1260;140063;-80
2024/01/17 18:02:54;;;;;;;91.00;30.40;;;;;;;-1.06;72.86;98184.91;681978;1259;125132;-79
2024/01/17 18:17:58;;;;;;;91.80;33.40;;;;;;;-0.99;73.12;98153.29;681913;1265;138855;-79
2024/01/17 18:33:03;;;;;;;133.40;44.80;;;;;;;-0.74;73.74;98130.21;682089;1262;139528;-79
2024/01/17 18:48:08;;;;;;;81.60;30.80;;;;;;;-0.37;73.58;98095.55;681960;1265;139188;-80
2024/01/17 19:03:16;;;;;;;49.90;20.90;;;;;;;-0.04;73.88;98066.91;682068;1265;140101;-80
2024/01/17 19:18:20;;;;;;;;;;;;;;;0.23;73.42;98041.21;681941;1265;139965;-80
2024/01/17 19:33:24;;;;;;;59.20;26.20;;;;;;;0.53;73.30;98015.73;682034;1263;317495;-79
2024/01/17 19:48:30;;;;;;;56.10;22.10;;;;;;;0.53;72.68;97974.58;681877;1265;140122;-79
2024/01/17 20:03:36;;;;;;;56.20;22.50;;;;;;;0.44;72.73;97953.81;682062;1260;140797;-79
2024/01/17 20:18:42;;;;;;;56.20;22.60;;;;;;;0.48;72.86;97929.73;681875;1264;139273;-79
2024/01/17 20:33:46;;;;;;;53.50;20.70;;;;;;;0.53;73.12;97929.75;682014;1265;138978;-80
2024/01/17 20:48:50;;;;;;;92.50;37.70;;;;;;;0.63;73.18;97910.61;681931;1265;140512;-80
2024/01/17 21:03:54;;;;;;;66.20;25.60;;;;;;;0.71;73.28;97880.91;682092;1264;140158;-80
2024/01/17 21:18:59;;;;;;;56.70;23.50;;;;;;;0.75;73.78;97844.73;681721;1265;139245;-80
2024/01/17 21:34:06;;;;;;;71.30;25.20;;;;;;;0.69;73.89;97821.14;681831;1265;138948;-80
2024/01/17 21:49:13;;;;;;;43.10;18.10;;;;;;;0.80;74.29;97800.05;682309;1265;139428;-79
2024/01/17 22:04:17;;;;;;;65.60;23.00;;;;;;;0.95;73.76;97778.71;682202;1265;139238;-80
2024/01/17 22:19:21;;;;;;;53.80;21.20;;;;;;;1.02;74.06;97748.59;682005;1263;139555;-79
2024/01/17 22:34:26;;;;;;;60.30;23.40;;;;;;;1.01;74.00;97726.52;682105;1272;139570;-79
2024/01/17 22:49:32;;;;;;;45.20;19.80;;;;;;;0.94;75.02;97699.05;681789;1265;139439;-79
2024/01/17 23:04:38;;;;;;;;;;;;;;;0.93;75.46;97673.00;682346;1268;139841;-82
2024/01/17 23:19:44;;;;;;;40.30;18.00;;;;;;;0.99;77.03;97643.33;682131;1263;125003;-79
2024/01/17 23:34:48;;;;;;;33.00;14.40;;;;;;;0.97;78.96;97628.72;682078;1266;140348;-79
2024/01/17 23:49:51;;;;;;;79.60;27.60;;;;;;;1.15;79.36;97619.05;682092;1265;138848;-80
